sensor_id;sensor_type;location;lat;lon;timestamp;P1;durP1;ratioP1;P2;durP2;ratioP2
8480;SDS011;4277;51.354;6.740;2023-08-24T00:01:09;8.90;;;3.88;;
8480;SDS011;4277;51.354;6.740;2023-08-24T00:03:37;6.90;;;4.25;;
8480;SDS011;4277;51.354;6.740;2023-08-24T00:06:03;4.72;;;4.30;;
8480;SDS011;4277;51.354;6.740;2023-08-24T00:08:29;5.95;;;3.92;;
8480;SDS011;4277;51.354;6.740;2023-08-24T00:10:55;6.82;;;4.13;;
8480;SDS011;4277;51.354;6.740;2023-08-24T00:13:21;6.65;;;4.15;;
8480;SDS011;4277;51.354;6.740;2023-08-24T00:15:47;6.13;;;4.10;;
8480;SDS011;4277;51.354;6.740;2023-08-24T00:18:13;5.03;;;4.10;;
8480;SDS011;4277;51.354;6.740;2023-08-24T00:20:39;9.27;;;4.43;;
8480;SDS011;4277;51.354;6.740;2023-08-24T00:23:05;6.80;;;4.30;;
8480;SDS011;4277;51.354;6.740;2023-08-24T00:25:31;5.00;;;4.47;;
8480;SDS011;4277;51.354;6.740;2023-08-24T00:27:57;6.47;;;4.15;;
8480;SDS011;4277;51.354;6.740;2023-08-24T00:30:23;6.82;;;4.60;;
8480;SDS011;4277;51.354;6.740;2023-08-24T00:32:49;4.75;;;4.25;;
8480;SDS011;4277;51.354;6.740;2023-08-24T00:35:15;7.40;;;4.50;;
8480;SDS011;4277;51.354;6.740;2023-08-24T00:37:41;7.78;;;4.70;;
8480;SDS011;4277;51.354;6.740;2023-08-24T00:40:07;7.32;;;4.47;;
8480;SDS011;4277;51.354;6.740;2023-08-24T00:42:38;6.38;;;4.45;;
8480;SDS011;4277;51.354;6.740;2023-08-24T00:45:05;7.40;;;4.72;;
8480;SDS011;4277;51.354;6.740;2023-08-24T00:47:31;6.07;;;4.63;;
8480;SDS011;4277;51.354;6.740;2023-08-24T00:49:58;7.90;;;4.50;;
8480;SDS011;4277;51.354;6.740;2023-08-24T00:52:25;5.22;;;4.60;;
8480;SDS011;4277;51.354;6.740;2023-08-24T00:54:53;4.88;;;4.35;;
8480;SDS011;4277;51.354;6.740;2023-08-24T00:57:19;8.35;;;4.80;;
8480;SDS011;4277;51.354;6.740;2023-08-24T00:59:45;5.20;;;4.25;;
8480;SDS011;4277;51.354;6.740;2023-08-24T01:02:11;6.57;;;4.47;;
8480;SDS011;4277;51.354;6.740;2023-08-24T01:04:37;5.72;;;4.18;;
8480;SDS011;4277;51.354;6.740;2023-08-24T01:07:03;7.13;;;4.80;;
8480;SDS011;4277;51.354;6.740;2023-08-24T01:09:29;6.80;;;4.55;;
8480;SDS011;4277;51.354;6.740;2023-08-24T01:12:05;5.55;;;4.05;;
8480;SDS011;4277;51.354;6.740;2023-08-24T01:17:05;5.15;;;4.57;;
8480;SDS011;4277;51.354;6.740;2023-08-24T01:19:41;6.03;;;4.10;;
8480;SDS011;4277;51.354;6.740;2023-08-24T01:22:23;9.07;;;4.40;;
8480;SDS011;4277;51.354;6.740;2023-08-24T01:27:33;5.55;;;4.78;;
8480;SDS011;4277;51.354;6.740;2023-08-24T01:30:00;5.53;;;5.03;;
8480;SDS011;4277;51.354;6.740;2023-08-24T01:32:26;6.13;;;4.68;;
8480;SDS011;4277;51.354;6.740;2023-08-24T01:34:52;7.30;;;4.72;;
8480;SDS011;4277;51.354;6.740;2023-08-24T01:37:18;6.15;;;5.00;;
8480;SDS011;4277;51.354;6.740;2023-08-24T01:39:50;7.65;;;4.70;;
8480;SDS011;4277;51.354;6.740;2023-08-24T01:42:19;6.85;;;4.80;;
8480;SDS011;4277;51.354;6.740;2023-08-24T01:44:50;5.57;;;4.53;;
8480;SDS011;4277;51.354;6.740;2023-08-24T01:47:16;6.82;;;4.57;;
8480;SDS011;4277;51.354;6.740;2023-08-24T01:49:43;6.03;;;4.88;;
8480;SDS011;4277;51.354;6.740;2023-08-24T01:52:09;8.68;;;4.95;;
8480;SDS011;4277;51.354;6.740;2023-08-24T01:54:35;6.43;;;5.32;;
8480;SDS011;4277;51.354;6.740;2023-08-24T01:57:01;5.95;;;5.35;;
8480;SDS011;4277;51.354;6.740;2023-08-24T01:59:29;8.18;;;5.05;;
8480;SDS011;4277;51.354;6.740;2023-08-24T02:01:55;5.85;;;5.10;;
8480;SDS011;4277;51.354;6.740;2023-08-24T02:04:21;8.27;;;4.97;;
8480;SDS011;4277;51.354;6.740;2023-08-24T02:06:47;7.53;;;5.03;;
8480;SDS011;4277;51.354;6.740;2023-08-24T02:09:13;6.57;;;4.90;;
8480;SDS011;4277;51.354;6.740;2023-08-24T02:11:39;7.05;;;5.13;;
8480;SDS011;4277;51.354;6.740;2023-08-24T02:14:05;5.63;;;4.90;;
8480;SDS011;4277;51.354;6.740;2023-08-24T02:16:32;8.88;;;4.80;;
8480;SDS011;4277;51.354;6.740;2023-08-24T02:18:58;6.70;;;5.13;;
8480;SDS011;4277;51.354;6.740;2023-08-24T02:21:24;5.15;;;4.50;;
8480;SDS011;4277;51.354;6.740;2023-08-24T02:23:50;7.22;;;4.25;;
8480;SDS011;4277;51.354;6.740;2023-08-24T02:26:15;4.60;;;4.00;;
8480;SDS011;4277;51.354;6.740;2023-08-24T02:28:41;4.90;;;4.40;;
8480;SDS011;4277;51.354;6.740;2023-08-24T02:31:07;9.73;;;4.65;;
8480;SDS011;4277;51.354;6.740;2023-08-24T02:33:34;6.45;;;4.93;;
8480;SDS011;4277;51.354;6.740;2023-08-24T02:36:00;6.95;;;4.95;;
8480;SDS011;4277;51.354;6.740;2023-08-24T02:38:26;4.80;;;4.30;;
8480;SDS011;4277;51.354;6.740;2023-08-24T02:41:02;4.95;;;4.45;;
8480;SDS011;4277;51.354;6.740;2023-08-24T02:43:28;5.15;;;4.18;;
8480;SDS011;4277;51.354;6.740;2023-08-24T02:45:54;6.82;;;4.57;;
8480;SDS011;4277;51.354;6.740;2023-08-24T02:48:20;6.47;;;5.05;;
8480;SDS011;4277;51.354;6.740;2023-08-24T02:50:46;8.07;;;4.70;;
8480;SDS011;4277;51.354;6.740;2023-08-24T02:53:12;7.32;;;5.10;;
8480;SDS011;4277;51.354;6.740;2023-08-24T02:55:39;5.40;;;4.72;;
8480;SDS011;4277;51.354;6.740;2023-08-24T02:58:04;8.05;;;5.25;;
8480;SDS011;4277;51.354;6.740;2023-08-24T03:00:30;5.05;;;4.43;;
8480;SDS011;4277;51.354;6.740;2023-08-24T03:02:57;5.80;;;4.80;;
8480;SDS011;4277;51.354;6.740;2023-08-24T03:05:23;7.10;;;5.18;;
8480;SDS011;4277;51.354;6.740;2023-08-24T03:07:49;7.03;;;4.85;;
8480;SDS011;4277;51.354;6.740;2023-08-24T03:10:15;6.60;;;4.85;;
8480;SDS011;4277;51.354;6.740;2023-08-24T03:12:41;6.32;;;4.88;;
8480;SDS011;4277;51.354;6.740;2023-08-24T03:15:07;7.93;;;4.82;;
8480;SDS011;4277;51.354;6.740;2023-08-24T03:17:33;6.05;;;4.53;;
8480;SDS011;4277;51.354;6.740;2023-08-24T03:19:59;5.43;;;4.68;;
8480;SDS011;4277;51.354;6.740;2023-08-24T03:22:25;5.22;;;4.28;;
8480;SDS011;4277;51.354;6.740;2023-08-24T03:24:51;7.00;;;4.47;;
8480;SDS011;4277;51.354;6.740;2023-08-24T03:27:17;8.40;;;4.55;;
8480;SDS011;4277;51.354;6.740;2023-08-24T03:29:43;8.95;;;4.60;;
8480;SDS011;4277;51.354;6.740;2023-08-24T03:32:09;4.65;;;3.97;;
8480;SDS011;4277;51.354;6.740;2023-08-24T03:34:35;5.47;;;4.25;;
8480;SDS011;4277;51.354;6.740;2023-08-24T03:37:01;8.63;;;4.35;;
8480;SDS011;4277;51.354;6.740;2023-08-24T03:39:27;6.28;;;4.25;;
8480;SDS011;4277;51.354;6.740;2023-08-24T03:41:53;8.30;;;4.00;;
8480;SDS011;4277;51.354;6.740;2023-08-24T03:44:19;5.88;;;4.10;;
8480;SDS011;4277;51.354;6.740;2023-08-24T03:46:46;5.70;;;4.40;;
8480;SDS011;4277;51.354;6.740;2023-08-24T03:49:12;5.15;;;4.53;;
8480;SDS011;4277;51.354;6.740;2023-08-24T03:51:38;6.55;;;4.43;;
8480;SDS011;4277;51.354;6.740;2023-08-24T03:54:04;8.93;;;4.22;;
8480;SDS011;4277;51.354;6.740;2023-08-24T03:56:30;5.63;;;4.20;;
8480;SDS011;4277;51.354;6.740;2023-08-24T03:58:57;5.40;;;4.30;;
8480;SDS011;4277;51.354;6.740;2023-08-24T04:01:23;5.15;;;4.15;;
8480;SDS011;4277;51.354;6.740;2023-08-24T04:03:49;7.63;;;5.07;;
8480;SDS011;4277;51.354;6.740;2023-08-24T04:06:17;5.93;;;4.57;;
8480;SDS011;4277;51.354;6.740;2023-08-24T04:08:44;5.32;;;4.10;;
8480;SDS011;4277;51.354;6.740;2023-08-24T04:11:10;5.28;;;4.60;;
8480;SDS011;4277;51.354;6.740;2023-08-24T04:13:36;6.28;;;4.70;;
8480;SDS011;4277;51.354;6.740;2023-08-24T04:16:02;9.38;;;5.30;;
8480;SDS011;4277;51.354;6.740;2023-08-24T04:18:28;7.30;;;4.82;;
8480;SDS011;4277;51.354;6.740;2023-08-24T04:20:55;6.95;;;4.97;;
8480;SDS011;4277;51.354;6.740;2023-08-24T04:23:24;8.48;;;5.05;;
8480;SDS011;4277;51.354;6.740;2023-08-24T04:25:51;8.45;;;5.45;;
8480;SDS011;4277;51.354;6.740;2023-08-24T04:28:18;5.78;;;4.80;;
8480;SDS011;4277;51.354;6.740;2023-08-24T04:30:53;7.90;;;5.20;;
8480;SDS011;4277;51.354;6.740;2023-08-24T04:33:23;7.07;;;5.22;;
8480;SDS011;4277;51.354;6.740;2023-08-24T04:35:49;6.82;;;5.00;;
8480;SDS011;4277;51.354;6.740;2023-08-24T04:38:16;6.82;;;4.90;;
8480;SDS011;4277;51.354;6.740;2023-08-24T04:40:49;7.78;;;5.63;;
8480;SDS011;4277;51.354;6.740;2023-08-24T04:43:16;14.00;;;5.55;;
8480;SDS011;4277;51.354;6.740;2023-08-24T04:45:42;9.48;;;5.32;;
8480;SDS011;4277;51.354;6.740;2023-08-24T04:48:08;8.70;;;5.38;;
8480;SDS011;4277;51.354;6.740;2023-08-24T04:50:34;7.65;;;5.97;;
8480;SDS011;4277;51.354;6.740;2023-08-24T04:53:00;9.23;;;6.32;;
8480;SDS011;4277;51.354;6.740;2023-08-24T04:55:25;9.52;;;5.93;;
8480;SDS011;4277;51.354;6.740;2023-08-24T05:00:27;11.50;;;6.47;;
8480;SDS011;4277;51.354;6.740;2023-08-24T05:02:53;10.75;;;5.78;;
8480;SDS011;4277;51.354;6.740;2023-08-24T05:05:19;10.35;;;6.00;;
8480;SDS011;4277;51.354;6.740;2023-08-24T05:07:45;9.90;;;6.03;;
8480;SDS011;4277;51.354;6.740;2023-08-24T05:10:11;8.05;;;5.20;;
8480;SDS011;4277;51.354;6.740;2023-08-24T05:12:37;9.18;;;5.75;;
8480;SDS011;4277;51.354;6.740;2023-08-24T05:15:03;8.25;;;6.00;;
8480;SDS011;4277;51.354;6.740;2023-08-24T05:17:29;10.20;;;6.78;;
8480;SDS011;4277;51.354;6.740;2023-08-24T05:19:56;10.15;;;6.60;;
8480;SDS011;4277;51.354;6.740;2023-08-24T05:22:22;10.18;;;6.30;;
8480;SDS011;4277;51.354;6.740;2023-08-24T05:24:48;11.27;;;6.93;;
8480;SDS011;4277;51.354;6.740;2023-08-24T05:27:14;8.15;;;6.00;;
8480;SDS011;4277;51.354;6.740;2023-08-24T05:29:41;12.73;;;6.10;;
8480;SDS011;4277;51.354;6.740;2023-08-24T05:32:07;9.48;;;5.78;;
8480;SDS011;4277;51.354;6.740;2023-08-24T05:34:33;9.45;;;6.50;;
8480;SDS011;4277;51.354;6.740;2023-08-24T05:36:59;9.63;;;6.57;;
8480;SDS011;4277;51.354;6.740;2023-08-24T05:39:25;8.20;;;6.53;;
8480;SDS011;4277;51.354;6.740;2023-08-24T05:41:51;11.57;;;6.60;;
8480;SDS011;4277;51.354;6.740;2023-08-24T05:44:20;9.10;;;6.50;;
8480;SDS011;4277;51.354;6.740;2023-08-24T05:46:46;9.68;;;6.57;;
8480;SDS011;4277;51.354;6.740;2023-08-24T05:49:13;11.65;;;6.60;;
8480;SDS011;4277;51.354;6.740;2023-08-24T05:51:38;11.70;;;8.00;;
8480;SDS011;4277;51.354;6.740;2023-08-24T05:54:05;8.98;;;7.00;;
8480;SDS011;4277;51.354;6.740;2023-08-24T05:56:31;9.38;;;7.60;;
8480;SDS011;4277;51.354;6.740;2023-08-24T05:58:57;13.70;;;7.30;;
8480;SDS011;4277;51.354;6.740;2023-08-24T06:01:23;9.60;;;7.57;;
8480;SDS011;4277;51.354;6.740;2023-08-24T06:03:49;10.90;;;7.45;;
8480;SDS011;4277;51.354;6.740;2023-08-24T06:06:15;10.10;;;7.32;;
8480;SDS011;4277;51.354;6.740;2023-08-24T06:08:42;8.70;;;7.45;;
8480;SDS011;4277;51.354;6.740;2023-08-24T06:11:08;9.55;;;7.05;;
8480;SDS011;4277;51.354;6.740;2023-08-24T06:13:33;9.52;;;7.05;;
8480;SDS011;4277;51.354;6.740;2023-08-24T06:15:59;8.73;;;6.97;;
8480;SDS011;4277;51.354;6.740;2023-08-24T06:18:26;11.25;;;6.82;;
8480;SDS011;4277;51.354;6.740;2023-08-24T06:20:52;7.70;;;6.72;;
8480;SDS011;4277;51.354;6.740;2023-08-24T06:23:19;9.00;;;6.60;;
8480;SDS011;4277;51.354;6.740;2023-08-24T06:25:45;8.50;;;6.53;;
8480;SDS011;4277;51.354;6.740;2023-08-24T06:28:11;9.00;;;7.07;;
8480;SDS011;4277;51.354;6.740;2023-08-24T06:30:38;9.85;;;7.22;;
8480;SDS011;4277;51.354;6.740;2023-08-24T06:33:05;8.02;;;6.40;;
8480;SDS011;4277;51.354;6.740;2023-08-24T06:35:32;7.13;;;6.15;;
8480;SDS011;4277;51.354;6.740;2023-08-24T06:37:58;7.20;;;6.28;;
8480;SDS011;4277;51.354;6.740;2023-08-24T06:40:24;8.25;;;6.28;;
8480;SDS011;4277;51.354;6.740;2023-08-24T06:42:50;10.48;;;6.18;;
8480;SDS011;4277;51.354;6.740;2023-08-24T06:45:16;8.88;;;5.72;;
8480;SDS011;4277;51.354;6.740;2023-08-24T06:47:43;13.25;;;6.40;;
8480;SDS011;4277;51.354;6.740;2023-08-24T06:50:09;11.55;;;6.20;;
8480;SDS011;4277;51.354;6.740;2023-08-24T06:52:35;7.47;;;5.05;;
8480;SDS011;4277;51.354;6.740;2023-08-24T06:55:01;25.00;;;11.88;;
8480;SDS011;4277;51.354;6.740;2023-08-24T06:57:27;11.48;;;6.97;;
8480;SDS011;4277;51.354;6.740;2023-08-24T06:59:53;9.23;;;6.18;;
8480;SDS011;4277;51.354;6.740;2023-08-24T07:02:19;9.65;;;5.70;;
8480;SDS011;4277;51.354;6.740;2023-08-24T07:04:45;8.70;;;5.63;;
8480;SDS011;4277;51.354;6.740;2023-08-24T07:07:11;8.65;;;4.95;;
8480;SDS011;4277;51.354;6.740;2023-08-24T07:09:37;7.85;;;4.43;;
8480;SDS011;4277;51.354;6.740;2023-08-24T07:12:03;8.20;;;4.95;;
8480;SDS011;4277;51.354;6.740;2023-08-24T07:14:32;6.60;;;4.70;;
8480;SDS011;4277;51.354;6.740;2023-08-24T07:16:58;7.28;;;5.10;;
8480;SDS011;4277;51.354;6.740;2023-08-24T07:19:24;7.97;;;4.72;;
8480;SDS011;4277;51.354;6.740;2023-08-24T07:21:50;6.97;;;4.53;;
8480;SDS011;4277;51.354;6.740;2023-08-24T07:24:16;6.85;;;4.60;;
8480;SDS011;4277;51.354;6.740;2023-08-24T07:26:44;9.07;;;4.47;;
8480;SDS011;4277;51.354;6.740;2023-08-24T07:29:10;8.50;;;4.43;;
8480;SDS011;4277;51.354;6.740;2023-08-24T07:31:36;5.93;;;4.50;;
8480;SDS011;4277;51.354;6.740;2023-08-24T07:34:03;7.53;;;4.38;;
8480;SDS011;4277;51.354;6.740;2023-08-24T07:36:29;6.45;;;3.95;;
8480;SDS011;4277;51.354;6.740;2023-08-24T07:38:56;7.43;;;4.53;;
8480;SDS011;4277;51.354;6.740;2023-08-24T07:41:22;5.35;;;3.97;;
8480;SDS011;4277;51.354;6.740;2023-08-24T07:43:48;8.88;;;4.43;;
8480;SDS011;4277;51.354;6.740;2023-08-24T07:46:13;4.20;;;3.80;;
8480;SDS011;4277;51.354;6.740;2023-08-24T07:48:39;5.70;;;4.10;;
8480;SDS011;4277;51.354;6.740;2023-08-24T07:51:06;7.60;;;4.10;;
8480;SDS011;4277;51.354;6.740;2023-08-24T07:53:33;4.50;;;3.88;;
8480;SDS011;4277;51.354;6.740;2023-08-24T07:55:59;7.60;;;4.05;;
8480;SDS011;4277;51.354;6.740;2023-08-24T07:58:26;7.95;;;3.80;;
8480;SDS011;4277;51.354;6.740;2023-08-24T08:00:52;5.70;;;4.00;;
8480;SDS011;4277;51.354;6.740;2023-08-24T08:03:18;4.32;;;3.53;;
8480;SDS011;4277;51.354;6.740;2023-08-24T08:05:45;6.68;;;3.75;;
8480;SDS011;4277;51.354;6.740;2023-08-24T08:08:13;6.70;;;3.50;;
8480;SDS011;4277;51.354;6.740;2023-08-24T08:10:39;5.00;;;3.53;;
8480;SDS011;4277;51.354;6.740;2023-08-24T08:13:05;4.03;;;3.30;;
8480;SDS011;4277;51.354;6.740;2023-08-24T08:15:30;5.35;;;3.05;;
8480;SDS011;4277;51.354;6.740;2023-08-24T08:17:56;4.20;;;2.80;;
8480;SDS011;4277;51.354;6.740;2023-08-24T08:20:22;5.45;;;3.30;;
8480;SDS011;4277;51.354;6.740;2023-08-24T08:22:48;5.13;;;2.75;;
8480;SDS011;4277;51.354;6.740;2023-08-24T08:25:15;3.40;;;2.75;;
8480;SDS011;4277;51.354;6.740;2023-08-24T08:27:44;5.40;;;3.10;;
8480;SDS011;4277;51.354;6.740;2023-08-24T08:30:10;4.28;;;3.13;;
8480;SDS011;4277;51.354;6.740;2023-08-24T08:32:36;4.78;;;3.30;;
8480;SDS011;4277;51.354;6.740;2023-08-24T08:35:03;6.47;;;3.25;;
8480;SDS011;4277;51.354;6.740;2023-08-24T08:37:30;5.30;;;3.25;;
8480;SDS011;4277;51.354;6.740;2023-08-24T08:39:57;5.07;;;2.83;;
8480;SDS011;4277;51.354;6.740;2023-08-24T08:42:23;3.90;;;3.03;;
8480;SDS011;4277;51.354;6.740;2023-08-24T08:44:49;5.88;;;3.25;;
8480;SDS011;4277;51.354;6.740;2023-08-24T08:47:15;3.50;;;2.80;;
8480;SDS011;4277;51.354;6.740;2023-08-24T08:49:42;4.32;;;2.90;;
8480;SDS011;4277;51.354;6.740;2023-08-24T08:52:09;3.10;;;2.80;;
8480;SDS011;4277;51.354;6.740;2023-08-24T08:54:35;7.18;;;3.20;;
8480;SDS011;4277;51.354;6.740;2023-08-24T08:57:01;4.00;;;2.90;;
8480;SDS011;4277;51.354;6.740;2023-08-24T08:59:28;5.78;;;3.22;;
8480;SDS011;4277;51.354;6.740;2023-08-24T09:01:55;3.58;;;2.90;;
8480;SDS011;4277;51.354;6.740;2023-08-24T09:04:23;3.22;;;2.90;;
8480;SDS011;4277;51.354;6.740;2023-08-24T09:06:49;5.15;;;3.08;;
8480;SDS011;4277;51.354;6.740;2023-08-24T09:09:16;7.32;;;2.97;;
8480;SDS011;4277;51.354;6.740;2023-08-24T09:11:42;4.07;;;3.13;;
8480;SDS011;4277;51.354;6.740;2023-08-24T09:14:12;3.42;;;2.85;;
8480;SDS011;4277;51.354;6.740;2023-08-24T09:16:38;3.92;;;2.67;;
8480;SDS011;4277;51.354;6.740;2023-08-24T09:19:05;7.07;;;2.97;;
8480;SDS011;4277;51.354;6.740;2023-08-24T09:21:32;3.13;;;2.40;;
8480;SDS011;4277;51.354;6.740;2023-08-24T09:24:01;4.22;;;2.38;;
8480;SDS011;4277;51.354;6.740;2023-08-24T09:26:29;3.20;;;2.60;;
8480;SDS011;4277;51.354;6.740;2023-08-24T09:28:55;2.95;;;2.55;;
8480;SDS011;4277;51.354;6.740;2023-08-24T09:31:22;5.13;;;2.65;;
8480;SDS011;4277;51.354;6.740;2023-08-24T09:33:49;4.78;;;2.50;;
8480;SDS011;4277;51.354;6.740;2023-08-24T09:36:14;3.80;;;2.60;;
8480;SDS011;4277;51.354;6.740;2023-08-24T09:38:47;2.85;;;2.45;;
8480;SDS011;4277;51.354;6.740;2023-08-24T09:41:16;4.57;;;2.70;;
8480;SDS011;4277;51.354;6.740;2023-08-24T09:43:42;2.55;;;2.33;;
8480;SDS011;4277;51.354;6.740;2023-08-24T09:46:08;4.22;;;2.42;;
8480;SDS011;4277;51.354;6.740;2023-08-24T09:48:33;4.25;;;2.60;;
8480;SDS011;4277;51.354;6.740;2023-08-24T09:51:00;4.40;;;2.70;;
8480;SDS011;4277;51.354;6.740;2023-08-24T09:53:29;4.63;;;3.25;;
8480;SDS011;4277;51.354;6.740;2023-08-24T09:56:01;4.75;;;2.60;;
8480;SDS011;4277;51.354;6.740;2023-08-24T09:58:28;4.60;;;2.70;;
8480;SDS011;4277;51.354;6.740;2023-08-24T10:00:54;3.50;;;2.55;;
8480;SDS011;4277;51.354;6.740;2023-08-24T10:03:20;6.88;;;2.90;;
8480;SDS011;4277;51.354;6.740;2023-08-24T10:05:51;4.30;;;2.33;;
8480;SDS011;4277;51.354;6.740;2023-08-24T10:08:22;3.50;;;2.55;;
8480;SDS011;4277;51.354;6.740;2023-08-24T10:10:52;3.85;;;2.58;;
8480;SDS011;4277;51.354;6.740;2023-08-24T10:13:23;3.15;;;2.47;;
8480;SDS011;4277;51.354;6.740;2023-08-24T10:15:57;6.97;;;2.70;;
8480;SDS011;4277;51.354;6.740;2023-08-24T10:18:24;5.40;;;2.53;;
8480;SDS011;4277;51.354;6.740;2023-08-24T10:20:51;2.65;;;2.42;;
8480;SDS011;4277;51.354;6.740;2023-08-24T10:23:17;5.38;;;2.67;;
8480;SDS011;4277;51.354;6.740;2023-08-24T10:25:45;4.78;;;2.70;;
8480;SDS011;4277;51.354;6.740;2023-08-24T10:28:12;4.10;;;2.63;;
8480;SDS011;4277;51.354;6.740;2023-08-24T10:30:39;3.17;;;2.70;;
8480;SDS011;4277;51.354;6.740;2023-08-24T10:33:08;3.22;;;2.88;;
8480;SDS011;4277;51.354;6.740;2023-08-24T10:35:36;3.55;;;2.85;;
8480;SDS011;4277;51.354;6.740;2023-08-24T10:38:03;3.42;;;2.80;;
8480;SDS011;4277;51.354;6.740;2023-08-24T10:40:33;4.63;;;2.78;;
8480;SDS011;4277;51.354;6.740;2023-08-24T10:43:03;3.28;;;2.83;;
8480;SDS011;4277;51.354;6.740;2023-08-24T10:48:21;3.75;;;2.63;;
8480;SDS011;4277;51.354;6.740;2023-08-24T10:53:38;5.35;;;2.80;;
8480;SDS011;4277;51.354;6.740;2023-08-24T10:56:11;3.60;;;2.70;;
8480;SDS011;4277;51.354;6.740;2023-08-24T10:58:37;6.43;;;2.72;;
8480;SDS011;4277;51.354;6.740;2023-08-24T11:01:03;6.50;;;3.00;;
8480;SDS011;4277;51.354;6.740;2023-08-24T11:03:32;5.45;;;2.95;;
8480;SDS011;4277;51.354;6.740;2023-08-24T11:05:58;4.95;;;2.78;;
8480;SDS011;4277;51.354;6.740;2023-08-24T11:11:18;7.85;;;5.07;;
8480;SDS011;4277;51.354;6.740;2023-08-24T11:16:39;8.23;;;4.97;;
8480;SDS011;4277;51.354;6.740;2023-08-24T11:19:06;15.00;;;10.13;;
8480;SDS011;4277;51.354;6.740;2023-08-24T11:21:35;8.68;;;5.38;;
8480;SDS011;4277;51.354;6.740;2023-08-24T11:24:01;8.93;;;4.32;;
8480;SDS011;4277;51.354;6.740;2023-08-24T11:26:29;7.90;;;6.70;;
8480;SDS011;4277;51.354;6.740;2023-08-24T11:28:55;12.93;;;8.52;;
8480;SDS011;4277;51.354;6.740;2023-08-24T11:31:22;42.10;;;20.20;;
8480;SDS011;4277;51.354;6.740;2023-08-24T11:33:53;8.63;;;3.08;;
8480;SDS011;4277;51.354;6.740;2023-08-24T11:36:22;4.50;;;3.10;;
8480;SDS011;4277;51.354;6.740;2023-08-24T11:38:52;3.55;;;2.80;;
8480;SDS011;4277;51.354;6.740;2023-08-24T11:41:21;12.13;;;6.45;;
8480;SDS011;4277;51.354;6.740;2023-08-24T11:43:47;6.82;;;3.50;;
8480;SDS011;4277;51.354;6.740;2023-08-24T11:46:15;9.70;;;7.07;;
8480;SDS011;4277;51.354;6.740;2023-08-24T11:48:44;4.32;;;2.72;;
8480;SDS011;4277;51.354;6.740;2023-08-24T11:51:11;5.72;;;3.17;;
8480;SDS011;4277;51.354;6.740;2023-08-24T11:53:46;5.63;;;3.25;;
8480;SDS011;4277;51.354;6.740;2023-08-24T11:56:12;4.30;;;3.28;;
8480;SDS011;4277;51.354;6.740;2023-08-24T11:58:38;5.90;;;3.22;;
8480;SDS011;4277;51.354;6.740;2023-08-24T12:01:10;7.03;;;3.92;;
8480;SDS011;4277;51.354;6.740;2023-08-24T12:03:36;4.20;;;3.10;;
8480;SDS011;4277;51.354;6.740;2023-08-24T12:06:09;5.00;;;3.40;;
8480;SDS011;4277;51.354;6.740;2023-08-24T12:08:42;4.22;;;3.05;;
8480;SDS011;4277;51.354;6.740;2023-08-24T12:11:10;5.45;;;3.40;;
8480;SDS011;4277;51.354;6.740;2023-08-24T12:13:44;3.47;;;3.00;;
8480;SDS011;4277;51.354;6.740;2023-08-24T12:16:11;6.72;;;4.53;;
8480;SDS011;4277;51.354;6.740;2023-08-24T12:18:46;5.10;;;3.30;;
8480;SDS011;4277;51.354;6.740;2023-08-24T12:21:13;8.32;;;5.28;;
8480;SDS011;4277;51.354;6.740;2023-08-24T12:23:39;10.32;;;6.72;;
8480;SDS011;4277;51.354;6.740;2023-08-24T12:26:04;9.20;;;5.43;;
8480;SDS011;4277;51.354;6.740;2023-08-24T12:28:32;8.27;;;5.05;;
8480;SDS011;4277;51.354;6.740;2023-08-24T12:30:58;7.43;;;5.82;;
8480;SDS011;4277;51.354;6.740;2023-08-24T12:33:28;10.55;;;5.50;;
8480;SDS011;4277;51.354;6.740;2023-08-24T12:35:56;6.57;;;3.47;;
8480;SDS011;4277;51.354;6.740;2023-08-24T12:38:23;6.65;;;3.50;;
8480;SDS011;4277;51.354;6.740;2023-08-24T12:40:49;6.63;;;3.08;;
8480;SDS011;4277;51.354;6.740;2023-08-24T12:43:15;9.23;;;3.35;;
8480;SDS011;4277;51.354;6.740;2023-08-24T12:45:40;5.88;;;3.20;;
8480;SDS011;4277;51.354;6.740;2023-08-24T12:48:06;5.32;;;3.05;;
8480;SDS011;4277;51.354;6.740;2023-08-24T12:50:36;5.10;;;3.25;;
8480;SDS011;4277;51.354;6.740;2023-08-24T12:53:02;6.25;;;3.17;;
8480;SDS011;4277;51.354;6.740;2023-08-24T12:55:31;4.72;;;3.00;;
8480;SDS011;4277;51.354;6.740;2023-08-24T12:57:57;6.25;;;3.35;;
8480;SDS011;4277;51.354;6.740;2023-08-24T13:00:23;5.82;;;2.92;;
8480;SDS011;4277;51.354;6.740;2023-08-24T13:02:49;4.50;;;3.00;;
8480;SDS011;4277;51.354;6.740;2023-08-24T13:05:16;3.63;;;2.78;;
8480;SDS011;4277;51.354;6.740;2023-08-24T13:07:42;6.13;;;2.95;;
8480;SDS011;4277;51.354;6.740;2023-08-24T13:10:08;4.82;;;3.10;;
8480;SDS011;4277;51.354;6.740;2023-08-24T13:12:35;3.83;;;2.90;;
8480;SDS011;4277;51.354;6.740;2023-08-24T13:15:01;3.85;;;2.60;;
8480;SDS011;4277;51.354;6.740;2023-08-24T13:17:29;7.90;;;3.10;;
8480;SDS011;4277;51.354;6.740;2023-08-24T13:19:55;6.88;;;3.45;;
8480;SDS011;4277;51.354;6.740;2023-08-24T13:22:21;4.07;;;2.85;;
8480;SDS011;4277;51.354;6.740;2023-08-24T13:24:47;8.05;;;3.30;;
8480;SDS011;4277;51.354;6.740;2023-08-24T13:27:13;7.13;;;3.28;;
8480;SDS011;4277;51.354;6.740;2023-08-24T13:29:40;7.68;;;3.50;;
8480;SDS011;4277;51.354;6.740;2023-08-24T13:32:06;5.78;;;3.10;;
8480;SDS011;4277;51.354;6.740;2023-08-24T13:34:32;7.13;;;3.35;;
8480;SDS011;4277;51.354;6.740;2023-08-24T13:36:58;10.93;;;3.33;;
8480;SDS011;4277;51.354;6.740;2023-08-24T13:39:25;7.55;;;4.43;;
8480;SDS011;4277;51.354;6.740;2023-08-24T13:41:53;5.70;;;3.38;;
8480;SDS011;4277;51.354;6.740;2023-08-24T13:44:19;8.75;;;3.58;;
8480;SDS011;4277;51.354;6.740;2023-08-24T13:46:45;10.18;;;4.30;;
8480;SDS011;4277;51.354;6.740;2023-08-24T13:49:11;8.25;;;3.90;;
8480;SDS011;4277;51.354;6.740;2023-08-24T13:51:37;7.88;;;3.85;;
8480;SDS011;4277;51.354;6.740;2023-08-24T13:54:13;8.30;;;4.07;;
8480;SDS011;4277;51.354;6.740;2023-08-24T13:56:39;6.30;;;3.70;;
8480;SDS011;4277;51.354;6.740;2023-08-24T13:59:05;6.65;;;3.70;;
8480;SDS011;4277;51.354;6.740;2023-08-24T14:01:31;8.88;;;3.80;;
8480;SDS011;4277;51.354;6.740;2023-08-24T14:03:58;6.85;;;3.65;;
8480;SDS011;4277;51.354;6.740;2023-08-24T14:06:24;7.55;;;3.90;;
8480;SDS011;4277;51.354;6.740;2023-08-24T14:08:50;7.75;;;4.10;;
8480;SDS011;4277;51.354;6.740;2023-08-24T14:11:16;6.57;;;3.90;;
8480;SDS011;4277;51.354;6.740;2023-08-24T14:13:42;7.70;;;4.45;;
8480;SDS011;4277;51.354;6.740;2023-08-24T14:16:08;5.97;;;4.10;;
8480;SDS011;4277;51.354;6.740;2023-08-24T14:18:33;8.10;;;4.07;;
8480;SDS011;4277;51.354;6.740;2023-08-24T14:21:01;7.75;;;3.95;;
8480;SDS011;4277;51.354;6.740;2023-08-24T14:23:27;6.88;;;3.67;;
8480;SDS011;4277;51.354;6.740;2023-08-24T14:25:53;6.45;;;3.78;;
8480;SDS011;4277;51.354;6.740;2023-08-24T14:28:20;9.70;;;4.25;;
8480;SDS011;4277;51.354;6.740;2023-08-24T14:30:47;9.27;;;4.10;;
8480;SDS011;4277;51.354;6.740;2023-08-24T14:33:14;6.40;;;3.58;;
8480;SDS011;4277;51.354;6.740;2023-08-24T14:35:40;6.75;;;3.78;;
8480;SDS011;4277;51.354;6.740;2023-08-24T14:38:05;5.55;;;3.53;;
8480;SDS011;4277;51.354;6.740;2023-08-24T14:40:31;7.03;;;4.00;;
8480;SDS011;4277;51.354;6.740;2023-08-24T14:42:57;5.55;;;3.53;;
8480;SDS011;4277;51.354;6.740;2023-08-24T14:45:23;7.35;;;3.70;;
8480;SDS011;4277;51.354;6.740;2023-08-24T14:47:49;9.18;;;3.78;;
8480;SDS011;4277;51.354;6.740;2023-08-24T14:50:15;9.80;;;4.00;;
8480;SDS011;4277;51.354;6.740;2023-08-24T14:52:41;7.15;;;3.78;;
8480;SDS011;4277;51.354;6.740;2023-08-24T14:55:08;8.70;;;3.92;;
8480;SDS011;4277;51.354;6.740;2023-08-24T14:57:34;5.78;;;3.35;;
8480;SDS011;4277;51.354;6.740;2023-08-24T15:00:01;5.90;;;3.47;;
8480;SDS011;4277;51.354;6.740;2023-08-24T15:02:28;7.05;;;4.10;;
8480;SDS011;4277;51.354;6.740;2023-08-24T15:04:54;9.73;;;4.10;;
8480;SDS011;4277;51.354;6.740;2023-08-24T15:07:20;8.13;;;3.47;;
8480;SDS011;4277;51.354;6.740;2023-08-24T15:09:45;6.50;;;3.90;;
8480;SDS011;4277;51.354;6.740;2023-08-24T15:12:11;6.88;;;3.90;;
8480;SDS011;4277;51.354;6.740;2023-08-24T15:14:37;7.07;;;3.92;;
8480;SDS011;4277;51.354;6.740;2023-08-24T15:17:21;4.85;;;3.22;;
8480;SDS011;4277;51.354;6.740;2023-08-24T15:19:47;5.45;;;3.30;;
8480;SDS011;4277;51.354;6.740;2023-08-24T15:22:13;7.85;;;2.90;;
8480;SDS011;4277;51.354;6.740;2023-08-24T15:24:39;6.10;;;2.60;;
8480;SDS011;4277;51.354;6.740;2023-08-24T15:27:07;5.88;;;2.72;;
8480;SDS011;4277;51.354;6.740;2023-08-24T15:29:32;4.57;;;2.60;;
8480;SDS011;4277;51.354;6.740;2023-08-24T15:31:59;5.40;;;2.40;;